Terminal Aerodrome Forecast
Issued by NWS

Home | Current Version | Previous Version | Graphics & Text | Print | Product List | Glossary On
Versions: 1 2 3 4 5 6 7 8 9 10 11 12 13
790
FTUS45 KGGW 230529
TAFSDY
TAF
KSDY 230529Z 2306/2406 VRB05KT P6SM BKN150
     FM231000 26004KT P6SM BKN150
     FM232100 30008KT P6SM BKN110
     FM240000 31005KT P6SM SCT150=

USA.gov is the U.S. government's official web portal to all federal, state and local government web resources and services.